sensor_id;sensor_type;location;lat;lon;timestamp;P1;durP1;ratioP1;P2;durP2;ratioP2
27666;SDS011;15074;50.940;5.282;2022-11-20T00:26:34;25.00;;;16.58;;
27666;SDS011;15074;50.940;5.282;2022-11-20T00:29:00;32.22;;;19.25;;
27666;SDS011;15074;50.940;5.282;2022-11-20T00:31:26;47.95;;;20.42;;
27666;SDS011;15074;50.940;5.282;2022-11-20T00:33:53;31.60;;;16.30;;
27666;SDS011;15074;50.940;5.282;2022-11-20T00:36:19;26.02;;;17.17;;
27666;SDS011;15074;50.940;5.282;2022-11-20T00:38:50;30.02;;;17.55;;
27666;SDS011;15074;50.940;5.282;2022-11-20T00:58:29;28.45;;;17.65;;
27666;SDS011;15074;50.940;5.282;2022-11-20T01:01:04;31.35;;;18.23;;
27666;SDS011;15074;50.940;5.282;2022-11-20T01:03:32;30.20;;;18.10;;
27666;SDS011;15074;50.940;5.282;2022-11-20T01:06:02;25.13;;;16.33;;
27666;SDS011;15074;50.940;5.282;2022-11-20T01:08:30;37.20;;;17.55;;
27666;SDS011;15074;50.940;5.282;2022-11-20T01:11:00;34.60;;;18.67;;
27666;SDS011;15074;50.940;5.282;2022-11-20T01:13:31;26.55;;;18.05;;
27666;SDS011;15074;50.940;5.282;2022-11-20T01:18:38;32.22;;;18.05;;
27666;SDS011;15074;50.940;5.282;2022-11-20T01:21:06;29.90;;;17.63;;
27666;SDS011;15074;50.940;5.282;2022-11-20T01:23:34;30.42;;;18.05;;
27666;SDS011;15074;50.940;5.282;2022-11-20T01:26:04;26.25;;;17.60;;
27666;SDS011;15074;50.940;5.282;2022-11-20T01:28:31;28.80;;;17.45;;
27666;SDS011;15074;50.940;5.282;2022-11-20T01:30:58;21.95;;;16.90;;
27666;SDS011;15074;50.940;5.282;2022-11-20T01:33:24;25.90;;;17.70;;
27666;SDS011;15074;50.940;5.282;2022-11-20T01:35:49;24.33;;;17.08;;
27666;SDS011;15074;50.940;5.282;2022-11-20T01:38:16;30.17;;;17.05;;
27666;SDS011;15074;50.940;5.282;2022-11-20T01:40:41;24.88;;;17.55;;
27666;SDS011;15074;50.940;5.282;2022-11-20T01:43:14;27.40;;;17.20;;
27666;SDS011;15074;50.940;5.282;2022-11-20T01:48:11;26.55;;;16.55;;
27666;SDS011;15074;50.940;5.282;2022-11-20T01:50:37;27.13;;;17.75;;
27666;SDS011;15074;50.940;5.282;2022-11-20T01:53:08;25.13;;;16.40;;
27666;SDS011;15074;50.940;5.282;2022-11-20T01:55:37;27.08;;;18.00;;
27666;SDS011;15074;50.940;5.282;2022-11-20T01:58:06;22.77;;;17.15;;
27666;SDS011;15074;50.940;5.282;2022-11-20T02:00:32;27.15;;;17.80;;
27666;SDS011;15074;50.940;5.282;2022-11-20T02:02:58;29.05;;;17.70;;
27666;SDS011;15074;50.940;5.282;2022-11-20T02:08:15;32.20;;;18.52;;
27666;SDS011;15074;50.940;5.282;2022-11-20T02:10:41;21.15;;;17.27;;
27666;SDS011;15074;50.940;5.282;2022-11-20T02:13:06;23.55;;;16.85;;
27666;SDS011;15074;50.940;5.282;2022-11-20T02:15:51;26.65;;;17.38;;
27666;SDS011;15074;50.940;5.282;2022-11-20T02:18:19;26.73;;;17.23;;
27666;SDS011;15074;50.940;5.282;2022-11-20T02:20:46;24.15;;;18.60;;
27666;SDS011;15074;50.940;5.282;2022-11-20T02:23:24;24.80;;;17.58;;
27666;SDS011;15074;50.940;5.282;2022-11-20T02:25:54;26.40;;;16.88;;
27666;SDS011;15074;50.940;5.282;2022-11-20T02:28:22;26.88;;;17.17;;
27666;SDS011;15074;50.940;5.282;2022-11-20T02:30:48;25.90;;;17.67;;
27666;SDS011;15074;50.940;5.282;2022-11-20T02:33:13;23.08;;;16.92;;
27666;SDS011;15074;50.940;5.282;2022-11-20T02:35:40;21.00;;;17.05;;
27666;SDS011;15074;50.940;5.282;2022-11-20T02:38:08;27.88;;;17.30;;
27666;SDS011;15074;50.940;5.282;2022-11-20T02:40:35;24.67;;;16.92;;
27666;SDS011;15074;50.940;5.282;2022-11-20T02:43:00;17.83;;;15.80;;
27666;SDS011;15074;50.940;5.282;2022-11-20T02:45:26;23.25;;;17.45;;
27666;SDS011;15074;50.940;5.282;2022-11-20T02:47:52;25.77;;;17.05;;
27666;SDS011;15074;50.940;5.282;2022-11-20T02:50:18;20.35;;;15.73;;
27666;SDS011;15074;50.940;5.282;2022-11-20T02:52:44;23.98;;;16.92;;
27666;SDS011;15074;50.940;5.282;2022-11-20T02:55:09;23.15;;;16.73;;
27666;SDS011;15074;50.940;5.282;2022-11-20T02:57:35;24.85;;;17.02;;
27666;SDS011;15074;50.940;5.282;2022-11-20T03:00:01;23.90;;;16.40;;
27666;SDS011;15074;50.940;5.282;2022-11-20T03:02:31;25.25;;;18.38;;
27666;SDS011;15074;50.940;5.282;2022-11-20T03:04:57;26.52;;;18.75;;
27666;SDS011;15074;50.940;5.282;2022-11-20T03:07:23;22.35;;;17.30;;
27666;SDS011;15074;50.940;5.282;2022-11-20T03:09:49;25.60;;;16.40;;
27666;SDS011;15074;50.940;5.282;2022-11-20T03:12:15;25.15;;;18.02;;
27666;SDS011;15074;50.940;5.282;2022-11-20T03:14:40;27.40;;;17.77;;
27666;SDS011;15074;50.940;5.282;2022-11-20T03:17:06;23.75;;;17.88;;
27666;SDS011;15074;50.940;5.282;2022-11-20T03:19:32;24.77;;;17.65;;
27666;SDS011;15074;50.940;5.282;2022-11-20T03:21:57;32.08;;;18.55;;
27666;SDS011;15074;50.940;5.282;2022-11-20T03:24:23;29.20;;;18.40;;
27666;SDS011;15074;50.940;5.282;2022-11-20T03:26:48;21.58;;;16.17;;
27666;SDS011;15074;50.940;5.282;2022-11-20T03:29:14;26.27;;;17.77;;
27666;SDS011;15074;50.940;5.282;2022-11-20T03:31:40;24.27;;;16.90;;
27666;SDS011;15074;50.940;5.282;2022-11-20T03:34:06;30.67;;;18.60;;
27666;SDS011;15074;50.940;5.282;2022-11-20T03:36:33;26.80;;;18.20;;
27666;SDS011;15074;50.940;5.282;2022-11-20T03:38:59;26.15;;;17.30;;
27666;SDS011;15074;50.940;5.282;2022-11-20T03:41:28;25.15;;;17.58;;
27666;SDS011;15074;50.940;5.282;2022-11-20T03:43:58;25.08;;;17.08;;
27666;SDS011;15074;50.940;5.282;2022-11-20T03:46:27;23.92;;;17.17;;
27666;SDS011;15074;50.940;5.282;2022-11-20T03:48:53;23.83;;;17.70;;
27666;SDS011;15074;50.940;5.282;2022-11-20T03:51:20;32.55;;;17.30;;
27666;SDS011;15074;50.940;5.282;2022-11-20T03:53:48;23.38;;;17.42;;
27666;SDS011;15074;50.940;5.282;2022-11-20T03:56:16;25.02;;;17.58;;
27666;SDS011;15074;50.940;5.282;2022-11-20T03:58:43;29.47;;;17.80;;
27666;SDS011;15074;50.940;5.282;2022-11-20T04:01:19;24.38;;;18.20;;
27666;SDS011;15074;50.940;5.282;2022-11-20T04:03:46;34.65;;;18.30;;
27666;SDS011;15074;50.940;5.282;2022-11-20T04:06:13;29.20;;;18.00;;
27666;SDS011;15074;50.940;5.282;2022-11-20T04:08:41;30.88;;;18.80;;
27666;SDS011;15074;50.940;5.282;2022-11-20T04:11:17;26.48;;;17.60;;
27666;SDS011;15074;50.940;5.282;2022-11-20T04:13:49;29.50;;;18.60;;
27666;SDS011;15074;50.940;5.282;2022-11-20T04:16:16;33.20;;;18.90;;
27666;SDS011;15074;50.940;5.282;2022-11-20T04:18:43;38.40;;;21.13;;
27666;SDS011;15074;50.940;5.282;2022-11-20T04:21:09;36.28;;;20.52;;
27666;SDS011;15074;50.940;5.282;2022-11-20T04:23:36;46.15;;;20.05;;
27666;SDS011;15074;50.940;5.282;2022-11-20T04:26:03;37.65;;;20.75;;
27666;SDS011;15074;50.940;5.282;2022-11-20T04:28:30;44.42;;;22.10;;
27666;SDS011;15074;50.940;5.282;2022-11-20T04:31:03;42.95;;;22.27;;
27666;SDS011;15074;50.940;5.282;2022-11-20T04:33:43;43.78;;;22.13;;
27666;SDS011;15074;50.940;5.282;2022-11-20T04:36:10;43.58;;;22.00;;
27666;SDS011;15074;50.940;5.282;2022-11-20T04:38:46;52.47;;;22.08;;
27666;SDS011;15074;50.940;5.282;2022-11-20T04:41:16;50.08;;;21.73;;
27666;SDS011;15074;50.940;5.282;2022-11-20T04:43:47;50.78;;;22.77;;
27666;SDS011;15074;50.940;5.282;2022-11-20T04:46:14;51.55;;;22.15;;
27666;SDS011;15074;50.940;5.282;2022-11-20T04:48:40;44.75;;;22.67;;
27666;SDS011;15074;50.940;5.282;2022-11-20T04:51:06;43.88;;;21.98;;
27666;SDS011;15074;50.940;5.282;2022-11-20T04:53:31;42.85;;;21.95;;
27666;SDS011;15074;50.940;5.282;2022-11-20T04:56:01;42.42;;;23.65;;
27666;SDS011;15074;50.940;5.282;2022-11-20T04:58:28;44.40;;;21.92;;
27666;SDS011;15074;50.940;5.282;2022-11-20T05:00:59;42.55;;;22.20;;
27666;SDS011;15074;50.940;5.282;2022-11-20T05:03:26;44.40;;;23.45;;
27666;SDS011;15074;50.940;5.282;2022-11-20T05:05:52;51.78;;;23.17;;
27666;SDS011;15074;50.940;5.282;2022-11-20T05:08:18;43.97;;;23.23;;
27666;SDS011;15074;50.940;5.282;2022-11-20T05:10:43;44.53;;;22.73;;
27666;SDS011;15074;50.940;5.282;2022-11-20T05:13:09;45.03;;;23.48;;
27666;SDS011;15074;50.940;5.282;2022-11-20T05:15:34;48.53;;;23.10;;
27666;SDS011;15074;50.940;5.282;2022-11-20T05:18:00;43.33;;;23.38;;
27666;SDS011;15074;50.940;5.282;2022-11-20T05:20:25;44.75;;;22.95;;
27666;SDS011;15074;50.940;5.282;2022-11-20T05:22:51;46.45;;;23.42;;
27666;SDS011;15074;50.940;5.282;2022-11-20T05:25:17;51.10;;;23.40;;
27666;SDS011;15074;50.940;5.282;2022-11-20T05:27:42;47.50;;;23.15;;
27666;SDS011;15074;50.940;5.282;2022-11-20T05:30:08;52.30;;;23.42;;
27666;SDS011;15074;50.940;5.282;2022-11-20T05:32:34;43.22;;;23.83;;
27666;SDS011;15074;50.940;5.282;2022-11-20T05:35:00;44.33;;;24.75;;
27666;SDS011;15074;50.940;5.282;2022-11-20T05:37:25;58.83;;;23.42;;
27666;SDS011;15074;50.940;5.282;2022-11-20T05:39:51;50.67;;;23.85;;
27666;SDS011;15074;50.940;5.282;2022-11-20T05:42:17;43.65;;;22.85;;
27666;SDS011;15074;50.940;5.282;2022-11-20T05:44:58;50.42;;;23.45;;
27666;SDS011;15074;50.940;5.282;2022-11-20T05:47:24;48.17;;;22.73;;
27666;SDS011;15074;50.940;5.282;2022-11-20T05:49:51;54.72;;;24.08;;
27666;SDS011;15074;50.940;5.282;2022-11-20T05:52:17;56.53;;;24.55;;
27666;SDS011;15074;50.940;5.282;2022-11-20T05:54:42;53.70;;;23.98;;
27666;SDS011;15074;50.940;5.282;2022-11-20T05:57:08;53.80;;;24.17;;
27666;SDS011;15074;50.940;5.282;2022-11-20T05:59:34;49.42;;;24.40;;
27666;SDS011;15074;50.940;5.282;2022-11-20T06:01:59;43.25;;;22.55;;
27666;SDS011;15074;50.940;5.282;2022-11-20T06:04:25;42.08;;;22.88;;
27666;SDS011;15074;50.940;5.282;2022-11-20T06:06:51;42.88;;;23.45;;
27666;SDS011;15074;50.940;5.282;2022-11-20T06:09:16;53.50;;;23.85;;
27666;SDS011;15074;50.940;5.282;2022-11-20T06:11:42;51.85;;;24.38;;
27666;SDS011;15074;50.940;5.282;2022-11-20T06:14:07;53.88;;;23.48;;
27666;SDS011;15074;50.940;5.282;2022-11-20T06:16:33;57.47;;;23.08;;
27666;SDS011;15074;50.940;5.282;2022-11-20T06:18:58;54.78;;;23.33;;
27666;SDS011;15074;50.940;5.282;2022-11-20T06:21:24;54.17;;;23.48;;
27666;SDS011;15074;50.940;5.282;2022-11-20T06:23:50;56.53;;;25.17;;
27666;SDS011;15074;50.940;5.282;2022-11-20T06:26:21;51.17;;;23.77;;
27666;SDS011;15074;50.940;5.282;2022-11-20T06:28:49;54.50;;;22.98;;
27666;SDS011;15074;50.940;5.282;2022-11-20T06:31:16;50.15;;;25.17;;
27666;SDS011;15074;50.940;5.282;2022-11-20T06:33:44;43.88;;;22.13;;
27666;SDS011;15074;50.940;5.282;2022-11-20T06:36:11;47.50;;;23.02;;
27666;SDS011;15074;50.940;5.282;2022-11-20T06:38:38;53.72;;;23.27;;
27666;SDS011;15074;50.940;5.282;2022-11-20T06:41:08;50.78;;;23.63;;
27666;SDS011;15074;50.940;5.282;2022-11-20T06:43:36;55.92;;;24.25;;
27666;SDS011;15074;50.940;5.282;2022-11-20T06:46:02;50.30;;;23.33;;
27666;SDS011;15074;50.940;5.282;2022-11-20T06:48:28;56.92;;;24.25;;
27666;SDS011;15074;50.940;5.282;2022-11-20T06:50:55;55.20;;;22.98;;
27666;SDS011;15074;50.940;5.282;2022-11-20T07:09:34;54.60;;;25.00;;
27666;SDS011;15074;50.940;5.282;2022-11-20T07:11:59;58.03;;;24.40;;
27666;SDS011;15074;50.940;5.282;2022-11-20T07:14:25;65.57;;;25.45;;
27666;SDS011;15074;50.940;5.282;2022-11-20T08:13:16;56.65;;;24.48;;
27666;SDS011;15074;50.940;5.282;2022-11-20T08:16:00;46.83;;;22.02;;
27666;SDS011;15074;50.940;5.282;2022-11-20T08:18:25;51.65;;;24.52;;
27666;SDS011;15074;50.940;5.282;2022-11-20T08:20:51;47.22;;;23.13;;
27666;SDS011;15074;50.940;5.282;2022-11-20T08:23:17;54.08;;;23.77;;
27666;SDS011;15074;50.940;5.282;2022-11-20T08:25:42;56.72;;;24.65;;
27666;SDS011;15074;50.940;5.282;2022-11-20T08:28:08;56.17;;;24.75;;
27666;SDS011;15074;50.940;5.282;2022-11-20T08:30:35;52.35;;;22.95;;
27666;SDS011;15074;50.940;5.282;2022-11-20T08:33:10;55.05;;;22.85;;
27666;SDS011;15074;50.940;5.282;2022-11-20T08:35:36;52.42;;;24.20;;
27666;SDS011;15074;50.940;5.282;2022-11-20T08:38:03;58.65;;;24.98;;
27666;SDS011;15074;50.940;5.282;2022-11-20T08:40:29;54.78;;;23.70;;
27666;SDS011;15074;50.940;5.282;2022-11-20T08:42:55;61.03;;;24.23;;
27666;SDS011;15074;50.940;5.282;2022-11-20T08:45:21;55.58;;;23.02;;
27666;SDS011;15074;50.940;5.282;2022-11-20T08:47:47;63.50;;;25.10;;
27666;SDS011;15074;50.940;5.282;2022-11-20T08:50:13;53.63;;;24.00;;
27666;SDS011;15074;50.940;5.282;2022-11-20T08:52:40;64.05;;;26.20;;
27666;SDS011;15074;50.940;5.282;2022-11-20T08:55:06;59.55;;;25.48;;
27666;SDS011;15074;50.940;5.282;2022-11-20T08:57:36;54.03;;;23.75;;
27666;SDS011;15074;50.940;5.282;2022-11-20T09:00:03;64.47;;;25.50;;
27666;SDS011;15074;50.940;5.282;2022-11-20T09:02:30;57.33;;;23.70;;
27666;SDS011;15074;50.940;5.282;2022-11-20T09:04:57;50.78;;;23.15;;
27666;SDS011;15074;50.940;5.282;2022-11-20T09:07:23;60.05;;;23.38;;
27666;SDS011;15074;50.940;5.282;2022-11-20T09:09:48;57.53;;;23.58;;
27666;SDS011;15074;50.940;5.282;2022-11-20T09:12:14;54.55;;;22.88;;
27666;SDS011;15074;50.940;5.282;2022-11-20T09:14:40;59.45;;;24.08;;
27666;SDS011;15074;50.940;5.282;2022-11-20T09:17:05;57.42;;;25.13;;
27666;SDS011;15074;50.940;5.282;2022-11-20T09:19:32;58.78;;;24.30;;
27666;SDS011;15074;50.940;5.282;2022-11-20T09:21:58;57.22;;;22.52;;
27666;SDS011;15074;50.940;5.282;2022-11-20T09:24:25;57.63;;;23.40;;
27666;SDS011;15074;50.940;5.282;2022-11-20T09:26:51;67.60;;;25.95;;
27666;SDS011;15074;50.940;5.282;2022-11-20T09:29:17;46.08;;;22.60;;
27666;SDS011;15074;50.940;5.282;2022-11-20T09:31:42;55.90;;;23.23;;
27666;SDS011;15074;50.940;5.282;2022-11-20T09:34:08;55.72;;;22.50;;
27666;SDS011;15074;50.940;5.282;2022-11-20T09:36:34;56.90;;;22.58;;
27666;SDS011;15074;50.940;5.282;2022-11-20T09:39:00;57.65;;;22.80;;
27666;SDS011;15074;50.940;5.282;2022-11-20T09:41:34;53.13;;;23.33;;
27666;SDS011;15074;50.940;5.282;2022-11-20T09:49:20;58.97;;;23.83;;
27666;SDS011;15074;50.940;5.282;2022-11-20T09:54:42;64.57;;;23.42;;
27666;SDS011;15074;50.940;5.282;2022-11-20T09:57:13;60.22;;;23.35;;
27666;SDS011;15074;50.940;5.282;2022-11-20T09:59:42;64.00;;;23.90;;
27666;SDS011;15074;50.940;5.282;2022-11-20T10:02:25;57.72;;;22.95;;
27666;SDS011;15074;50.940;5.282;2022-11-20T10:10:40;61.45;;;24.98;;
27666;SDS011;15074;50.940;5.282;2022-11-20T10:32:20;56.85;;;21.90;;
27666;SDS011;15074;50.940;5.282;2022-11-20T10:47:55;71.88;;;24.67;;
27666;SDS011;15074;50.940;5.282;2022-11-20T10:50:41;65.78;;;25.38;;
27666;SDS011;15074;50.940;5.282;2022-11-20T10:56:27;69.57;;;24.48;;
27666;SDS011;15074;50.940;5.282;2022-11-20T11:02:00;75.38;;;26.20;;
27666;SDS011;15074;50.940;5.282;2022-11-20T11:06:52;69.82;;;23.85;;
27666;SDS011;15074;50.940;5.282;2022-11-20T11:09:30;63.45;;;22.98;;
27666;SDS011;15074;50.940;5.282;2022-11-20T11:12:00;68.40;;;24.17;;
27666;SDS011;15074;50.940;5.282;2022-11-20T11:14:26;57.13;;;22.35;;
27666;SDS011;15074;50.940;5.282;2022-11-20T11:16:53;68.57;;;24.77;;
27666;SDS011;15074;50.940;5.282;2022-11-20T11:21:49;63.75;;;23.40;;
27666;SDS011;15074;50.940;5.282;2022-11-20T11:24:23;72.55;;;24.63;;
27666;SDS011;15074;50.940;5.282;2022-11-20T11:26:55;63.42;;;24.83;;
27666;SDS011;15074;50.940;5.282;2022-11-20T11:29:29;70.45;;;23.75;;
27666;SDS011;15074;50.940;5.282;2022-11-20T11:34:37;67.40;;;24.95;;
27666;SDS011;15074;50.940;5.282;2022-11-20T11:37:03;60.63;;;23.05;;
27666;SDS011;15074;50.940;5.282;2022-11-20T11:46:02;64.18;;;23.60;;
27666;SDS011;15074;50.940;5.282;2022-11-20T11:48:30;54.05;;;22.63;;
27666;SDS011;15074;50.940;5.282;2022-11-20T11:50:56;53.58;;;22.83;;
27666;SDS011;15074;50.940;5.282;2022-11-20T11:53:22;39.22;;;19.00;;
27666;SDS011;15074;50.940;5.282;2022-11-20T11:58:43;51.33;;;19.50;;
27666;SDS011;15074;50.940;5.282;2022-11-20T12:03:59;51.38;;;21.90;;
27666;SDS011;15074;50.940;5.282;2022-11-20T12:06:47;51.97;;;23.05;;
27666;SDS011;15074;50.940;5.282;2022-11-20T12:09:17;46.55;;;22.58;;
27666;SDS011;15074;50.940;5.282;2022-11-20T12:11:54;39.10;;;19.80;;
27666;SDS011;15074;50.940;5.282;2022-11-20T12:17:01;43.53;;;20.88;;
27666;SDS011;15074;50.940;5.282;2022-11-20T12:19:29;32.47;;;19.42;;
27666;SDS011;15074;50.940;5.282;2022-11-20T12:25:08;29.42;;;16.02;;
27666;SDS011;15074;50.940;5.282;2022-11-20T12:27:39;23.98;;;14.88;;
27666;SDS011;15074;50.940;5.282;2022-11-20T12:47:28;5.45;;;2.42;;
27666;SDS011;15074;50.940;5.282;2022-11-20T12:50:02;2.92;;;2.00;;
27666;SDS011;15074;50.940;5.282;2022-11-20T12:52:37;5.68;;;2.42;;
27666;SDS011;15074;50.940;5.282;2022-11-20T13:00:55;6.45;;;2.67;;
27666;SDS011;15074;50.940;5.282;2022-11-20T13:04:03;5.15;;;2.00;;
27666;SDS011;15074;50.940;5.282;2022-11-20T13:06:52;4.00;;;1.63;;
27666;SDS011;15074;50.940;5.282;2022-11-20T13:09:19;3.83;;;1.65;;
27666;SDS011;15074;50.940;5.282;2022-11-20T13:12:08;3.47;;;2.05;;
27666;SDS011;15074;50.940;5.282;2022-11-20T13:14:53;3.67;;;1.48;;
27666;SDS011;15074;50.940;5.282;2022-11-20T13:18:07;2.17;;;1.13;;
27666;SDS011;15074;50.940;5.282;2022-11-20T13:20:25;3.50;;;1.55;;
27666;SDS011;15074;50.940;5.282;2022-11-20T13:22:52;6.85;;;2.20;;
27666;SDS011;15074;50.940;5.282;2022-11-20T13:27:53;2.25;;;1.40;;
27666;SDS011;15074;50.940;5.282;2022-11-20T13:30:21;2.23;;;1.40;;
27666;SDS011;15074;50.940;5.282;2022-11-20T13:35:31;3.55;;;1.40;;
27666;SDS011;15074;50.940;5.282;2022-11-20T13:41:00;3.90;;;1.35;;
27666;SDS011;15074;50.940;5.282;2022-11-20T13:43:44;4.20;;;1.50;;
27666;SDS011;15074;50.940;5.282;2022-11-20T13:46:12;4.70;;;1.90;;
27666;SDS011;15074;50.940;5.282;2022-11-20T13:48:39;7.82;;;2.08;;
27666;SDS011;15074;50.940;5.282;2022-11-20T14:01:47;4.35;;;2.60;;
27666;SDS011;15074;50.940;5.282;2022-11-20T14:04:15;5.30;;;2.70;;
27666;SDS011;15074;50.940;5.282;2022-11-20T14:06:46;4.45;;;2.63;;
27666;SDS011;15074;50.940;5.282;2022-11-20T14:09:27;5.18;;;2.55;;
27666;SDS011;15074;50.940;5.282;2022-11-20T14:11:54;6.35;;;2.60;;
27666;SDS011;15074;50.940;5.282;2022-11-20T14:14:21;5.78;;;3.72;;
27666;SDS011;15074;50.940;5.282;2022-11-20T14:16:48;6.40;;;4.13;;
27666;SDS011;15074;50.940;5.282;2022-11-20T14:21:53;4.57;;;2.75;;
27666;SDS011;15074;50.940;5.282;2022-11-20T14:24:31;6.32;;;2.83;;
27666;SDS011;15074;50.940;5.282;2022-11-20T14:26:57;7.40;;;2.85;;
27666;SDS011;15074;50.940;5.282;2022-11-20T14:29:44;6.38;;;3.15;;
27666;SDS011;15074;50.940;5.282;2022-11-20T14:32:10;8.07;;;6.87;;
27666;SDS011;15074;50.940;5.282;2022-11-20T14:34:37;5.68;;;3.75;;
27666;SDS011;15074;50.940;5.282;2022-11-20T14:37:06;5.93;;;4.10;;
27666;SDS011;15074;50.940;5.282;2022-11-20T14:39:36;5.20;;;4.20;;
27666;SDS011;15074;50.940;5.282;2022-11-20T14:42:16;6.32;;;3.70;;
27666;SDS011;15074;50.940;5.282;2022-11-20T14:44:47;3.83;;;3.15;;
27666;SDS011;15074;50.940;5.282;2022-11-20T14:47:15;8.43;;;3.75;;
27666;SDS011;15074;50.940;5.282;2022-11-20T14:49:44;6.13;;;3.50;;
27666;SDS011;15074;50.940;5.282;2022-11-20T14:52:18;7.80;;;3.53;;
27666;SDS011;15074;50.940;5.282;2022-11-20T14:54:52;4.07;;;3.40;;
27666;SDS011;15074;50.940;5.282;2022-11-20T14:57:26;5.18;;;2.88;;
27666;SDS011;15074;50.940;5.282;2022-11-20T15:02:44;8.02;;;3.97;;
27666;SDS011;15074;50.940;5.282;2022-11-20T15:05:11;6.93;;;3.97;;
27666;SDS011;15074;50.940;5.282;2022-11-20T15:07:39;5.53;;;4.95;;
27666;SDS011;15074;50.940;5.282;2022-11-20T15:10:11;5.40;;;4.53;;
27666;SDS011;15074;50.940;5.282;2022-11-20T15:15:17;6.75;;;4.53;;
27666;SDS011;15074;50.940;5.282;2022-11-20T15:17:49;5.38;;;4.65;;
27666;SDS011;15074;50.940;5.282;2022-11-20T15:20:15;6.65;;;4.93;;
27666;SDS011;15074;50.940;5.282;2022-11-20T15:22:42;6.57;;;4.28;;
27666;SDS011;15074;50.940;5.282;2022-11-20T15:25:11;8.63;;;5.55;;
27666;SDS011;15074;50.940;5.282;2022-11-20T15:27:42;5.63;;;4.28;;
27666;SDS011;15074;50.940;5.282;2022-11-20T15:30:13;7.80;;;4.70;;
27666;SDS011;15074;50.940;5.282;2022-11-20T15:32:41;6.07;;;5.15;;
27666;SDS011;15074;50.940;5.282;2022-11-20T15:35:08;5.35;;;4.85;;
27666;SDS011;15074;50.940;5.282;2022-11-20T15:37:35;6.65;;;4.28;;
27666;SDS011;15074;50.940;5.282;2022-11-20T15:40:01;4.20;;;3.30;;
27666;SDS011;15074;50.940;5.282;2022-11-20T15:42:27;4.53;;;3.67;;
27666;SDS011;15074;50.940;5.282;2022-11-20T15:44:52;3.63;;;3.20;;
27666;SDS011;15074;50.940;5.282;2022-11-20T15:47:18;4.35;;;3.95;;
27666;SDS011;15074;50.940;5.282;2022-11-20T15:49:50;3.40;;;3.10;;
27666;SDS011;15074;50.940;5.282;2022-11-20T15:52:16;4.32;;;3.30;;
27666;SDS011;15074;50.940;5.282;2022-11-20T15:54:41;5.03;;;3.83;;
27666;SDS011;15074;50.940;5.282;2022-11-20T15:57:07;4.68;;;4.22;;
27666;SDS011;15074;50.940;5.282;2022-11-20T15:59:33;4.32;;;3.60;;
27666;SDS011;15074;50.940;5.282;2022-11-20T16:01:59;5.03;;;4.10;;
27666;SDS011;15074;50.940;5.282;2022-11-20T16:04:25;4.68;;;4.20;;
27666;SDS011;15074;50.940;5.282;2022-11-20T16:06:50;4.28;;;3.22;;
27666;SDS011;15074;50.940;5.282;2022-11-20T16:09:16;4.90;;;3.70;;
27666;SDS011;15074;50.940;5.282;2022-11-20T16:11:41;6.15;;;5.40;;
27666;SDS011;15074;50.940;5.282;2022-11-20T16:14:08;4.20;;;3.80;;
27666;SDS011;15074;50.940;5.282;2022-11-20T16:16:54;4.07;;;3.35;;
27666;SDS011;15074;50.940;5.282;2022-11-20T16:19:20;5.22;;;4.57;;
27666;SDS011;15074;50.940;5.282;2022-11-20T16:21:45;4.40;;;4.00;;
27666;SDS011;15074;50.940;5.282;2022-11-20T16:24:12;4.70;;;3.90;;
27666;SDS011;15074;50.940;5.282;2022-11-20T16:26:39;4.93;;;4.43;;
27666;SDS011;15074;50.940;5.282;2022-11-20T16:29:05;6.68;;;6.07;;
27666;SDS011;15074;50.940;5.282;2022-11-20T16:31:32;5.65;;;4.20;;
27666;SDS011;15074;50.940;5.282;2022-11-20T16:33:58;5.45;;;4.95;;
27666;SDS011;15074;50.940;5.282;2022-11-20T16:36:26;6.90;;;5.63;;
27666;SDS011;15074;50.940;5.282;2022-11-20T16:38:54;8.05;;;6.60;;
27666;SDS011;15074;50.940;5.282;2022-11-20T16:41:20;10.55;;;5.80;;
27666;SDS011;15074;50.940;5.282;2022-11-20T16:43:50;8.13;;;5.90;;
27666;SDS011;15074;50.940;5.282;2022-11-20T16:46:18;8.70;;;7.32;;
27666;SDS011;15074;50.940;5.282;2022-11-20T16:48:52;8.40;;;6.80;;
27666;SDS011;15074;50.940;5.282;2022-11-20T16:51:36;7.72;;;7.03;;
27666;SDS011;15074;50.940;5.282;2022-11-20T16:54:03;8.60;;;7.70;;
27666;SDS011;15074;50.940;5.282;2022-11-20T16:56:30;10.70;;;8.27;;
27666;SDS011;15074;50.940;5.282;2022-11-20T16:58:57;10.75;;;7.25;;
27666;SDS011;15074;50.940;5.282;2022-11-20T17:01:24;10.00;;;7.13;;
27666;SDS011;15074;50.940;5.282;2022-11-20T17:03:58;12.95;;;8.10;;
27666;SDS011;15074;50.940;5.282;2022-11-20T17:06:27;9.50;;;6.25;;
27666;SDS011;15074;50.940;5.282;2022-11-20T17:08:54;8.60;;;5.28;;
27666;SDS011;15074;50.940;5.282;2022-11-20T17:11:21;9.70;;;5.97;;
27666;SDS011;15074;50.940;5.282;2022-11-20T17:13:47;15.65;;;8.60;;
27666;SDS011;15074;50.940;5.282;2022-11-20T17:16:17;6.35;;;5.22;;
27666;SDS011;15074;50.940;5.282;2022-11-20T17:18:45;10.15;;;5.40;;
27666;SDS011;15074;50.940;5.282;2022-11-20T17:21:11;14.77;;;7.55;;
27666;SDS011;15074;50.940;5.282;2022-11-20T17:23:38;10.75;;;6.03;;
27666;SDS011;15074;50.940;5.282;2022-11-20T17:26:06;9.02;;;4.68;;
27666;SDS011;15074;50.940;5.282;2022-11-20T17:28:38;9.02;;;4.70;;
27666;SDS011;15074;50.940;5.282;2022-11-20T17:31:09;10.48;;;4.85;;
27666;SDS011;15074;50.940;5.282;2022-11-20T17:33:42;7.90;;;4.93;;
27666;SDS011;15074;50.940;5.282;2022-11-20T17:36:09;7.40;;;5.05;;
27666;SDS011;15074;50.940;5.282;2022-11-20T17:38:36;14.35;;;5.18;;
27666;SDS011;15074;50.940;5.282;2022-11-20T17:41:03;7.95;;;5.43;;
27666;SDS011;15074;50.940;5.282;2022-11-20T17:43:30;31.08;;;5.85;;
27666;SDS011;15074;50.940;5.282;2022-11-20T17:45:57;12.90;;;5.45;;
27666;SDS011;15074;50.940;5.282;2022-11-20T17:48:22;15.68;;;5.30;;
27666;SDS011;15074;50.940;5.282;2022-11-20T17:50:49;8.05;;;5.05;;
27666;SDS011;15074;50.940;5.282;2022-11-20T17:53:15;12.25;;;4.97;;
27666;SDS011;15074;50.940;5.282;2022-11-20T17:55:41;13.85;;;5.78;;
27666;SDS011;15074;50.940;5.282;2022-11-20T17:58:44;12.90;;;5.88;;
27666;SDS011;15074;50.940;5.282;2022-11-20T18:01:10;9.13;;;5.13;;
27666;SDS011;15074;50.940;5.282;2022-11-20T18:03:36;14.73;;;5.32;;
27666;SDS011;15074;50.940;5.282;2022-11-20T18:08:34;10.65;;;4.43;;
27666;SDS011;15074;50.940;5.282;2022-11-20T18:11:07;16.30;;;4.82;;
27666;SDS011;15074;50.940;5.282;2022-11-20T18:13:34;10.23;;;4.05;;
27666;SDS011;15074;50.940;5.282;2022-11-20T18:16:19;9.88;;;4.47;;
27666;SDS011;15074;50.940;5.282;2022-11-20T18:18:45;8.63;;;3.88;;
27666;SDS011;15074;50.940;5.282;2022-11-20T18:21:11;14.73;;;2.88;;
27666;SDS011;15074;50.940;5.282;2022-11-20T18:23:37;8.60;;;3.00;;
27666;SDS011;15074;50.940;5.282;2022-11-20T18:26:02;12.25;;;3.58;;
27666;SDS011;15074;50.940;5.282;2022-11-20T18:28:28;8.57;;;4.97;;
27666;SDS011;15074;50.940;5.282;2022-11-20T18:30:53;11.52;;;6.03;;
27666;SDS011;15074;50.940;5.282;2022-11-20T18:33:19;7.63;;;2.95;;
27666;SDS011;15074;50.940;5.282;2022-11-20T18:35:45;8.82;;;3.25;;
27666;SDS011;15074;50.940;5.282;2022-11-20T18:38:10;16.55;;;4.35;;
27666;SDS011;15074;50.940;5.282;2022-11-20T18:40:36;6.85;;;1.95;;
27666;SDS011;15074;50.940;5.282;2022-11-20T18:43:02;4.50;;;1.85;;
27666;SDS011;15074;50.940;5.282;2022-11-20T18:45:46;7.53;;;2.33;;
27666;SDS011;15074;50.940;5.282;2022-11-20T18:48:11;6.95;;;2.10;;
27666;SDS011;15074;50.940;5.282;2022-11-20T18:50:37;3.75;;;1.20;;
27666;SDS011;15074;50.940;5.282;2022-11-20T18:53:03;5.97;;;1.63;;